Time;durP1;ratioP1;P1;durP2;ratioP2;P2;SDS_P1;SDS_P2;PMS_P1;PMS_P2;Temp;Humidity;BMP_temperature;BMP_pressure;BME280_temperature;BME280_humidity;BME280_pressure;Samples;Min_cycle;Max_cycle;Signal;HPM_P1;HPM_P2
2022/03/22 00:00:30;;;;;;;;;;;;;;;;;;4981963;28;1256;-82
2022/03/22 00:02:55;;;;;;;;;;;;;;;;;;4981176;28;1292;-82
2022/03/22 00:05:20;;;;;;;;;;;;;;;;;;4982439;28;1899;-81
2022/03/22 00:07:45;;;;;;;;;;;;;;;;;;4982770;28;1217;-81
2022/03/22 00:10:11;;;;;;;;;;;;;;;;;;4982942;28;1221;-82
2022/03/22 00:12:36;;;;;;;;;;;;;;;;;;4983119;28;1253;-83
2022/03/22 00:15:05;;;;;;;;;;;;;;;;;;4971809;28;1437;-81
2022/03/22 00:17:30;;;;;;;;;;;;;;;;;;4982386;28;1265;-83
2022/03/22 00:19:55;;;;;;;;;;;;;;;;;;4982691;28;1304;-83
2022/03/22 00:22:20;;;;;;;;;;;;;;;;;;4980624;28;1474;-84
2022/03/22 00:24:46;;;;;;;;;;;;;;;;;;4982368;28;1898;-84
2022/03/22 00:27:11;;;;;;;;;;;;;;;;;;4982272;28;1496;-81
2022/03/22 00:29:36;;;;;;;;;;;;;;;;;;4983987;28;1248;-81
2022/03/22 00:32:02;;;;;;;;;;;;;;;;;;4982362;28;1280;-82
2022/03/22 00:34:27;;;;;;;;;;;;;;;;;;4982670;28;1410;-81
2022/03/22 00:36:54;;;;;;;;;;;;;;;;;;4982920;28;1335;-81
2022/03/22 00:39:19;;;;;;;;;;;;;;;;;;4983233;28;1264;-81
2022/03/22 00:41:45;;;;;;;;;;;;;;;;;;4983360;28;1273;-81
2022/03/22 00:44:10;;;;;;;;;;;;;;;;;;4982675;28;1902;-81
2022/03/22 00:46:36;;;;;;;;;;;;;;;;;;4982052;28;1438;-81
2022/03/22 00:49:02;;;;;;;;;;;;;;;;;;4982561;28;1347;-80
2022/03/22 00:51:27;;;;;;;;;;;;;;;;;;4982350;28;1304;-80
2022/03/22 00:53:52;;;;;;;;;;;;;;;;;;4982233;28;1256;-80
2022/03/22 00:56:18;;;;;;;;;;;;;;;;;;4981616;28;1308;-81
2022/03/22 00:58:43;;;;;;;;;;;;;;;;;;4982380;28;1249;-81
2022/03/22 01:01:08;;;;;;;;;;;;;;;;;;4981880;28;1138;-82
2022/03/22 01:03:34;;;;;;;;;;;;;;;;;;4980449;28;1394;-82
2022/03/22 01:06:01;;;;;;;;;;;;;;;;;;4981559;28;1955;-81
2022/03/22 01:08:29;;;;;;;;;;;;;;;;;;4982109;28;1326;-81
2022/03/22 01:10:54;;;;;;;;;;;;;;;;;;4982994;28;1371;-81
2022/03/22 01:13:21;;;;;;;;;;;;;;;;;;4982894;28;1225;-81
2022/03/22 01:15:47;;;;;;;;;;;;;;;;;;4981279;28;1756;-82
2022/03/22 01:18:12;;;;;;;;;;;;;;;;;;4982113;28;1324;-82
2022/03/22 01:20:39;;;;;;;;;;;;;;;;;;4982340;28;1312;-82
2022/03/22 01:23:04;;;;;;;;;;;;;;;;;;4981231;28;1639;-81
2022/03/22 01:25:30;;;;;;;;;;;;;;;;;;4982119;28;1898;-81
2022/03/22 01:27:56;;;;;;;;;;;;;;;;;;4982455;28;1245;-82
2022/03/22 01:30:23;;;;;;;;;;;;;;;;;;4981700;28;1478;-81
2022/03/22 01:32:52;;;;;;;;;;;;;;;;;;4982152;28;1176;-81
2022/03/22 01:35:18;;;;;;;;;;;;;;;;;;4981432;28;1311;-81
2022/03/22 01:37:44;;;;;;;;;;;;;;;;;;4982994;28;1308;-81
2022/03/22 01:40:10;;;;;;;;;;;;;;;;;;4982221;28;1356;-83
2022/03/22 01:42:35;;;;;;;;;;;;;;;;;;4981261;28;1395;-84
2022/03/22 01:45:01;;;;;;;;;;;;;;;;;;4981681;28;1902;-81
2022/03/22 01:47:28;;;;;;;;;;;;;;;;;;4980604;28;1945;-81
2022/03/22 01:49:53;;;;;;;;;;;;;;;;;;4980660;28;1316;-83
2022/03/22 01:52:21;;;;;;;;;;;;;;;;;;4982310;28;1166;-83
2022/03/22 01:54:49;;;;;;;;;;;;;;;;;;4980337;28;1176;-83
2022/03/22 01:57:14;;;;;;;;;;;;;;;;;;4982173;28;1241;-83
2022/03/22 01:59:39;;;;;;;;;;;;;;;;;;4982061;28;1799;-83
2022/03/22 02:07:34;;;;;;;;;;;;;;;;;;4985925;28;1284;-83
2022/03/22 02:09:59;;;;;;;;;;;;;;;;;;4985311;28;1268;-83
2022/03/22 02:12:24;;;;;;;;;;;;;;;;;;4984368;28;1410;-83
2022/03/22 02:14:49;;;;;;;;;;;;;;;;;;4984132;28;1450;-84
2022/03/22 02:17:15;;;;;;;;;;;;;;;;;;4985282;28;1237;-83
2022/03/22 02:19:40;;;;;;;;;;;;;;;;;;4985455;28;1248;-83
2022/03/22 02:22:06;;;;;;;;;;;;;;;;;;4985227;28;1241;-82
2022/03/22 02:24:32;;;;;;;;;;;;;;;;;;4984206;28;1941;-78
2022/03/22 02:26:57;;;;;;;;;;;;;;;;;;4984055;28;1434;-79
2022/03/22 02:29:22;;;;;;;;;;;;;;;;;;4983942;28;1291;-81
2022/03/22 02:31:47;;;;;;;;;;;;;;;;;;4984793;28;1249;-81
2022/03/22 02:34:13;;;;;;;;;;;;;;;;;;4985248;28;1249;-84
2022/03/22 02:36:38;;;;;;;;;;;;;;;;;;4985740;28;1337;-85
2022/03/22 02:39:03;;;;;;;;;;;;;;;;;;4983880;28;1185;-79
2022/03/22 02:41:29;;;;;;;;;;;;;;;;;;4982461;28;1351;-83
2022/03/22 02:43:55;;;;;;;;;;;;;;;;;;4983720;28;1226;-81
2022/03/22 02:46:20;;;;;;;;;;;;;;;;;;4982999;28;1968;-84
2022/03/22 02:48:46;;;;;;;;;;;;;;;;;;4984818;28;1221;-85
2022/03/22 02:51:12;;;;;;;;;;;;;;;;;;4983783;28;1394;-79
2022/03/22 02:53:37;;;;;;;;;;;;;;;;;;4982777;28;1302;-84
2022/03/22 02:56:03;;;;;;;;;;;;;;;;;;4983751;28;1438;-81
2022/03/22 02:58:28;;;;;;;;;;;;;;;;;;4984195;28;1244;-85
2022/03/22 03:00:53;;;;;;;;;;;;;;;;;;4984275;28;1359;-86
2022/03/22 03:03:22;;;;;;;;;;;;;;;;;;4982633;28;1284;-86
2022/03/22 03:05:49;;;;;;;;;;;;;;;;;;4982982;28;1951;-84
2022/03/22 03:08:15;;;;;;;;;;;;;;;;;;4983701;28;1356;-84
2022/03/22 03:10:40;;;;;;;;;;;;;;;;;;4983174;28;1237;-83
2022/03/22 03:13:05;;;;;;;;;;;;;;;;;;4982108;28;1376;-83
2022/03/22 03:15:31;;;;;;;;;;;;;;;;;;4983032;28;1375;-83
2022/03/22 03:17:57;;;;;;;;;;;;;;;;;;4984227;28;1300;-83
2022/03/22 03:20:22;;;;;;;;;;;;;;;;;;4982742;28;1466;-83
2022/03/22 03:22:47;;;;;;;;;;;;;;;;;;4983179;28;1167;-83
2022/03/22 03:25:13;;;;;;;;;;;;;;;;;;4984234;28;1890;-85
2022/03/22 03:27:38;;;;;;;;;;;;;;;;;;4973678;28;1391;-87
2022/03/22 03:30:04;;;;;;;;;;;;;;;;;;4983891;28;1198;-84
2022/03/22 03:32:29;;;;;;;;;;;;;;;;;;4984581;28;1324;-82
2022/03/22 03:34:55;;;;;;;;;;;;;;;;;;4984153;28;1268;-82
2022/03/22 03:37:23;;;;;;;;;;;;;;;;;;4983986;28;1273;-82
2022/03/22 03:39:48;;;;;;;;;;;;;;;;;;4981108;28;1441;-83
2022/03/22 03:42:13;;;;;;;;;;;;;;;;;;4982817;28;1244;-82
2022/03/22 03:47:22;;;;;;;;;;;;;;;;;;4984185;28;1406;-82
2022/03/22 03:49:49;;;;;;;;;;;;;;;;;;4983433;28;1261;-82
2022/03/22 03:52:16;;;;;;;;;;;;;;;;;;4983340;28;1454;-82
2022/03/22 03:54:42;;;;;;;;;;;;;;;;;;4983719;28;1395;-82
2022/03/22 03:57:07;;;;;;;;;;;;;;;;;;4984278;28;1362;-81
2022/03/22 03:59:34;;;;;;;;;;;;;;;;;;4983558;28;1264;-81
2022/03/22 04:01:59;;;;;;;;;;;;;;;;;;4983903;28;1288;-81
2022/03/22 04:04:24;;;;;;;;;;;;;;;;;;4983447;28;1910;-81
2022/03/22 04:06:49;;;;;;;;;;;;;;;;;;4983090;28;1283;-80
2022/03/22 04:09:15;;;;;;;;;;;;;;;;;;4981923;28;1540;-81
2022/03/22 04:11:40;;;;;;;;;;;;;;;;;;4983491;28;1308;-81
2022/03/22 04:14:06;;;;;;;;;;;;;;;;;;4982934;28;1509;-81
2022/03/22 04:16:31;;;;;;;;;;;;;;;;;;4983653;28;1354;-85
2022/03/22 04:18:56;;;;;;;;;;;;;;;;;;4984286;28;1296;-86
2022/03/22 04:21:21;;;;;;;;;;;;;;;;;;4982663;28;1263;-85
2022/03/22 04:23:46;;;;;;;;;;;;;;;;;;4970402;28;1581;-85
2022/03/22 04:26:12;;;;;;;;;;;;;;;;;;4982553;28;1945;-86
2022/03/22 04:34:05;;;;;;;;;;;;;;;;;;4984218;28;1150;-85
2022/03/22 04:36:30;;;;;;;;;;;;;;;;;;4981854;28;1379;-85
2022/03/22 04:38:56;;;;;;;;;;;;;;;;;;4982811;28;1303;-85
2022/03/22 04:41:21;;;;;;;;;;;;;;;;;;4973472;28;1390;-85
2022/03/22 04:43:46;;;;;;;;;;;;;;;;;;4982766;28;1114;-85
2022/03/22 04:46:18;;;;;;;;;;;;;;;;;;4980173;28;1957;-85
2022/03/22 04:48:44;;;;;;;;;;;;;;;;;;4982410;28;1332;-84
2022/03/22 04:56:46;;;;;;;;;;;;;;;;;;4981814;28;1331;-85
2022/03/22 04:59:11;;;;;;;;;;;;;;;;;;4982222;28;1355;-84
2022/03/22 05:01:37;;;;;;;;;;;;;;;;;;4982646;28;1245;-84
2022/03/22 05:04:02;;;;;;;;;;;;;;;;;;4981581;28;1473;-88
2022/03/22 05:06:27;;;;;;;;;;;;;;;;;;4981859;28;1946;-88
2022/03/22 05:08:55;;;;;;;;;;;;;;;;;;4980844;28;1441;-88
2022/03/22 05:11:21;;;;;;;;;;;;;;;;;;4982958;28;1208;-88
2022/03/22 05:13:46;;;;;;;;;;;;;;;;;;4984045;28;1178;-90
2022/03/22 05:16:11;;;;;;;;;;;;;;;;;;4983207;28;1253;-90
2022/03/22 05:18:37;;;;;;;;;;;;;;;;;;4982870;28;1189;-89
2022/03/22 05:21:04;;;;;;;;;;;;;;;;;;4982201;28;1560;-87
2022/03/22 05:23:29;;;;;;;;;;;;;;;;;;4983103;28;1331;-86
2022/03/22 05:25:54;;;;;;;;;;;;;;;;;;4982688;28;1899;-87
2022/03/22 05:28:20;;;;;;;;;;;;;;;;;;4982727;28;1299;-85
2022/03/22 05:30:45;;;;;;;;;;;;;;;;;;4982113;28;1316;-86
2022/03/22 05:33:10;;;;;;;;;;;;;;;;;;4981250;28;1312;-86
2022/03/22 05:35:35;;;;;;;;;;;;;;;;;;4982077;28;1571;-86
2022/03/22 05:38:00;;;;;;;;;;;;;;;;;;4981461;28;1324;-87
2022/03/22 05:40:26;;;;;;;;;;;;;;;;;;4981198;28;1317;-87
2022/03/22 05:42:51;;;;;;;;;;;;;;;;;;4981850;28;1311;-84
2022/03/22 05:45:17;;;;;;;;;;;;;;;;;;4981621;28;1898;-83
2022/03/22 05:47:42;;;;;;;;;;;;;;;;;;4982937;28;1308;-82
2022/03/22 05:50:08;;;;;;;;;;;;;;;;;;4981819;28;1391;-82
2022/03/22 05:52:33;;;;;;;;;;;;;;;;;;4981194;28;1442;-82
2022/03/22 05:54:59;;;;;;;;;;;;;;;;;;4981960;28;1303;-82
2022/03/22 05:57:24;;;;;;;;;;;;;;;;;;4981785;28;1449;-82
2022/03/22 05:59:49;;;;;;;;;;;;;;;;;;4982503;28;1272;-83
2022/03/22 06:02:14;;;;;;;;;;;;;;;;;;4981992;28;1368;-83
2022/03/22 06:04:40;;;;;;;;;;;;;;;;;;4981173;28;1966;-85
2022/03/22 06:07:05;;;;;;;;;;;;;;;;;;4980830;28;1370;-85
2022/03/22 06:09:31;;;;;;;;;;;;;;;;;;4979807;28;1415;-85
2022/03/22 06:11:56;;;;;;;;;;;;;;;;;;4981900;28;1241;-82
2022/03/22 06:14:21;;;;;;;;;;;;;;;;;;4980168;28;1355;-84
2022/03/22 06:16:46;;;;;;;;;;;;;;;;;;4981771;28;1292;-88
2022/03/22 06:19:11;;;;;;;;;;;;;;;;;;4980401;28;1443;-89
2022/03/22 06:21:37;;;;;;;;;;;;;;;;;;4982229;28;1257;-89
2022/03/22 06:24:02;;;;;;;;;;;;;;;;;;4982448;28;1396;-89
2022/03/22 06:26:27;;;;;;;;;;;;;;;;;;4981066;28;1972;-89
2022/03/22 06:28:52;;;;;;;;;;;;;;;;;;4979840;28;1259;-86
2022/03/22 06:31:18;;;;;;;;;;;;;;;;;;4981906;28;1312;-88
2022/03/22 06:33:43;;;;;;;;;;;;;;;;;;4981172;28;1700;-88
2022/03/22 06:36:08;;;;;;;;;;;;;;;;;;4980633;28;1403;-89
2022/03/22 06:38:34;;;;;;;;;;;;;;;;;;4981323;28;1392;-87
2022/03/22 06:40:59;;;;;;;;;;;;;;;;;;4981735;28;1309;-89
2022/03/22 06:43:25;;;;;;;;;;;;;;;;;;4980562;28;1351;-88
2022/03/22 06:45:50;;;;;;;;;;;;;;;;;;4982585;28;1902;-89
2022/03/22 06:48:15;;;;;;;;;;;;;;;;;;4982029;28;1466;-80
2022/03/22 06:50:42;;;;;;;;;;;;;;;;;;4984842;28;1253;-78
2022/03/22 06:53:08;;;;;;;;;;;;;;;;;;4984833;28;1253;-79
2022/03/22 06:55:34;;;;;;;;;;;;;;;;;;4984072;28;1276;-75
2022/03/22 06:57:59;;;;;;;;;;;;;;;;;;4985143;28;1280;-75
2022/03/22 07:00:28;;;;;;;;;;;;;;;;;;4984494;28;1315;-76
2022/03/22 07:02:54;;;;;;;;;;;;;;;;;;4983815;28;1414;-75
2022/03/22 07:05:20;;;;;;;;;;;;;;;;;;4983791;28;1898;-75
2022/03/22 07:07:45;;;;;;;;;;;;;;;;;;4984267;28;1214;-72
2022/03/22 07:10:11;;;;;;;;;;;;;;;;;;4983512;28;1414;-76
2022/03/22 07:12:51;;;;;;;;;;;;;;;;;;4984700;28;1442;-74
2022/03/22 07:15:16;;;;;;;;;;;;;;;;;;4985190;28;1296;-77
2022/03/22 07:17:42;;;;;;;;;;;;;;;;;;4983429;28;1431;-77
2022/03/22 07:20:07;;;;;;;;;;;;;;;;;;4983617;28;1449;-75
2022/03/22 07:22:32;;;;;;;;;;;;;;;;;;4983976;28;1367;-75
2022/03/22 07:24:58;;;;;;;;;;;;;;;;;;4985307;28;1964;-75
2022/03/22 07:27:23;;;;;;;;;;;;;;;;;;4984666;28;1521;-77
2022/03/22 07:29:50;;;;;;;;;;;;;;;;;;4984278;28;1525;-75
2022/03/22 07:32:16;;;;;;;;;;;;;;;;;;4984995;28;1171;-75
2022/03/22 07:34:41;;;;;;;;;;;;;;;;;;4985152;28;1406;-75
2022/03/22 07:37:08;;;;;;;;;;;;;;;;;;4984717;28;1291;-75
2022/03/22 07:39:34;;;;;;;;;;;;;;;;;;4985575;28;1253;-75
2022/03/22 07:42:00;;;;;;;;;;;;;;;;;;4985364;28;1394;-75
2022/03/22 07:44:27;;;;;;;;;;;;;;;;;;4984464;28;1910;-76
2022/03/22 07:46:52;;;;;;;;;;;;;;;;;;4984632;28;1428;-74
2022/03/22 07:54:46;;;;;;;;;;;;;;;;;;4984558;28;1484;-75
2022/03/22 07:57:11;;;;;;;;;;;;;;;;;;4982762;28;1655;-73
2022/03/22 07:59:37;;;;;;;;;;;;;;;;;;4983260;28;1493;-75
2022/03/22 08:02:03;;;;;;;;;;;;;;;;;;4983120;28;1254;-74
2022/03/22 08:04:28;;;;;;;;;;;;;;;;;;4984792;28;1886;-74
2022/03/22 08:06:53;;;;;;;;;;;;;;;;;;4982020;28;1414;-73
2022/03/22 08:09:19;;;;;;;;;;;;;;;;;;4981926;28;1360;-74
2022/03/22 08:11:44;;;;;;;;;;;;;;;;;;4983566;28;1367;-74
2022/03/22 08:14:09;;;;;;;;;;;;;;;;;;4983272;28;1410;-72
2022/03/22 08:16:38;;;;;;;;;;;;;;;;;;4984554;28;1342;-73
2022/03/22 08:19:05;;;;;;;;;;;;;;;;;;4982958;28;1310;-72
2022/03/22 08:21:30;;;;;;;;;;;;;;;;;;4983610;28;1456;-72
2022/03/22 08:23:55;;;;;;;;;;;;;;;;;;4985414;28;1229;-74
2022/03/22 08:26:20;;;;;;;;;;;;;;;;;;4982646;28;1975;-71
2022/03/22 08:28:46;;;;;;;;;;;;;;;;;;4983440;28;1154;-68
2022/03/22 08:31:11;;;;;;;;;;;;;;;;;;4981583;28;1439;-68
2022/03/22 08:33:37;;;;;;;;;;;;;;;;;;4983642;28;1369;-68
2022/03/22 08:36:02;;;;;;;;;;;;;;;;;;4983074;28;1304;-68
2022/03/22 08:38:28;;;;;;;;;;;;;;;;;;4982237;28;1515;-69
2022/03/22 08:40:54;;;;;;;;;;;;;;;;;;4983094;28;1398;-69
2022/03/22 08:43:19;;;;;;;;;;;;;;;;;;4983052;28;1177;-69
2022/03/22 08:45:45;;;;;;;;;;;;;;;;;;4980742;28;1975;-68
2022/03/22 08:48:11;;;;;;;;;;;;;;;;;;4984383;28;1260;-68
2022/03/22 08:50:37;;;;;;;;;;;;;;;;;;4983274;28;1515;-68
2022/03/22 08:53:02;;;;;;;;;;;;;;;;;;4980654;28;1351;-70
2022/03/22 08:55:29;;;;;;;;;;;;;;;;;;4981304;28;1447;-70
2022/03/22 08:57:54;;;;;;;;;;;;;;;;;;4982317;28;1351;-70
2022/03/22 09:00:20;;;;;;;;;;;;;;;;;;4979974;28;1635;-70
2022/03/22 09:02:47;;;;;;;;;;;;;;;;;;4980046;28;1430;-70
2022/03/22 09:07:58;;;;;;;;;;;;;;;;;;4982136;28;1141;-70
2022/03/22 09:10:23;;;;;;;;;;;;;;;;;;4980144;28;1533;-70
2022/03/22 09:12:48;;;;;;;;;;;;;;;;;;4981664;28;1678;-70
2022/03/22 09:15:18;;;;;;;;;;;;;;;;;;4980783;28;1410;-69
2022/03/22 09:17:43;;;;;;;;;;;;;;;;;;4982299;28;1273;-69
2022/03/22 09:20:12;;;;;;;;;;;;;;;;;;4981072;28;1354;-69
2022/03/22 09:22:37;;;;;;;;;;;;;;;;;;4980740;28;1616;-69
2022/03/22 09:25:03;;;;;;;;;;;;;;;;;;4981968;28;1973;-69
2022/03/22 09:27:28;;;;;;;;;;;;;;;;;;4981152;28;1445;-69
2022/03/22 09:29:53;;;;;;;;;;;;;;;;;;4981670;28;1379;-70
2022/03/22 09:32:19;;;;;;;;;;;;;;;;;;4980705;28;1442;-69
2022/03/22 09:34:44;;;;;;;;;;;;;;;;;;4981485;28;1205;-69
2022/03/22 09:37:09;;;;;;;;;;;;;;;;;;4980336;28;1450;-70
2022/03/22 09:39:34;;;;;;;;;;;;;;;;;;4981064;28;1577;-69
2022/03/22 09:42:01;;;;;;;;;;;;;;;;;;4981805;28;1331;-70
2022/03/22 09:44:28;;;;;;;;;;;;;;;;;;4981446;28;1193;-70
2022/03/22 09:46:55;;;;;;;;;;;;;;;;;;4980940;28;1339;-70
2022/03/22 09:49:20;;;;;;;;;;;;;;;;;;4981740;28;1328;-69
2022/03/22 09:51:45;;;;;;;;;;;;;;;;;;4980925;28;1518;-70
2022/03/22 09:54:12;;;;;;;;;;;;;;;;;;4979550;28;1375;-70
2022/03/22 09:56:37;;;;;;;;;;;;;;;;;;4980928;28;1342;-70
2022/03/22 09:59:03;;;;;;;;;;;;;;;;;;4981183;28;1332;-69
2022/03/22 10:01:28;;;;;;;;;;;;;;;;;;4980976;28;1196;-70
2022/03/22 10:03:57;;;;;;;;;;;;;;;;;;4981811;28;1331;-70
2022/03/22 10:06:22;;;;;;;;;;;;;;;;;;4980599;28;1965;-69
2022/03/22 10:08:50;;;;;;;;;;;;;;;;;;4981232;28;1169;-70
2022/03/22 10:11:16;;;;;;;;;;;;;;;;;;4979492;28;1272;-69
2022/03/22 10:13:54;;;;;;;;;;;;;;;;;;4980967;28;1260;-69
2022/03/22 10:16:19;;;;;;;;;;;;;;;;;;4980373;28;1268;-70
2022/03/22 10:18:45;;;;;;;;;;;;;;;;;;4980345;28;1447;-70
2022/03/22 10:21:10;;;;;;;;;;;;;;;;;;4983651;28;1297;-69
2022/03/22 10:23:47;;;;;;;;;;;;;;;;;;4984507;28;1296;-70
2022/03/22 10:26:12;;;;;;;;;;;;;;;;;;4983689;28;1973;-69
2022/03/22 10:28:47;;;;;;;;;;;;;;;;;;4984390;28;1466;-69
2022/03/22 10:31:12;;;;;;;;;;;;;;;;;;4983209;28;1678;-69
2022/03/22 10:33:47;;;;;;;;;;;;;;;;;;4982664;28;1483;-71
2022/03/22 10:36:14;;;;;;;;;;;;;;;;;;4984239;28;1374;-69
2022/03/22 10:38:39;;;;;;;;;;;;;;;;;;4984948;28;1440;-68
2022/03/22 10:41:06;;;;;;;;;;;;;;;;;;4981877;28;1424;-68
2022/03/22 10:43:36;;;;;;;;;;;;;;;;;;4983287;28;1375;-69
2022/03/22 10:46:02;;;;;;;;;;;;;;;;;;4985155;28;1908;-74
2022/03/22 10:48:38;;;;;;;;;;;;;;;;;;4984441;28;1304;-69
2022/03/22 10:51:05;;;;;;;;;;;;;;;;;;4983910;28;1208;-70
2022/03/22 10:53:31;;;;;;;;;;;;;;;;;;4982595;28;1410;-69
2022/03/22 10:55:58;;;;;;;;;;;;;;;;;;4983030;28;1498;-70
2022/03/22 10:58:25;;;;;;;;;;;;;;;;;;4984153;28;1165;-69
2022/03/22 11:00:51;;;;;;;;;;;;;;;;;;4983359;28;1244;-69
2022/03/22 11:03:17;;;;;;;;;;;;;;;;;;4982766;28;1464;-68
2022/03/22 11:05:46;;;;;;;;;;;;;;;;;;4982804;28;2033;-68
2022/03/22 11:08:11;;;;;;;;;;;;;;;;;;4982920;28;1450;-69
2022/03/22 11:10:37;;;;;;;;;;;;;;;;;;4983640;28;1241;-68
2022/03/22 11:13:02;;;;;;;;;;;;;;;;;;4982424;28;1446;-69
2022/03/22 11:15:29;;;;;;;;;;;;;;;;;;4984875;28;1268;-68
2022/03/22 11:17:54;;;;;;;;;;;;;;;;;;4982605;28;1422;-68
2022/03/22 11:20:22;;;;;;;;;;;;;;;;;;4982965;28;1470;-68
2022/03/22 11:22:49;;;;;;;;;;;;;;;;;;4983350;28;1122;-68
2022/03/22 11:25:18;;;;;;;;;;;;;;;;;;4983239;28;1894;-68
2022/03/22 11:27:54;;;;;;;;;;;;;;;;;;4983385;28;1245;-68
2022/03/22 11:30:19;;;;;;;;;;;;;;;;;;4983082;28;1217;-69
2022/03/22 11:35:28;;;;;;;;;;;;;;;;;;4981363;28;1422;-69
2022/03/22 11:37:55;;;;;;;;;;;;;;;;;;4982303;28;1455;-69
2022/03/22 11:43:09;;;;;;;;;;;;;;;;;;4983418;28;982;-68
2022/03/22 11:45:44;;;;;;;;;;;;;;;;;;4981967;28;1906;-68
2022/03/22 11:48:09;;;;;;;;;;;;;;;;;;4982450;28;1293;-68
2022/03/22 11:50:34;;;;;;;;;;;;;;;;;;4983350;28;1454;-67
2022/03/22 11:53:01;;;;;;;;;;;;;;;;;;4982927;28;1318;-68
2022/03/22 11:55:26;;;;;;;;;;;;;;;;;;4983045;28;1351;-68
2022/03/22 11:57:53;;;;;;;;;;;;;;;;;;4982619;28;1397;-69
2022/03/22 12:00:20;;;;;;;;;;;;;;;;;;4982846;28;1241;-69
2022/03/22 12:02:52;;;;;;;;;;;;;;;;;;4981389;28;1526;-69
2022/03/22 12:05:20;;;;;;;;;;;;;;;;;;4982757;28;1894;-69
2022/03/22 12:07:46;;;;;;;;;;;;;;;;;;4982750;28;1177;-68
2022/03/22 12:10:13;;;;;;;;;;;;;;;;;;4982050;28;1173;-68
2022/03/22 12:12:40;;;;;;;;;;;;;;;;;;4982291;28;1398;-68
2022/03/22 12:15:07;;;;;;;;;;;;;;;;;;4982812;28;1264;-68
2022/03/22 12:17:33;;;;;;;;;;;;;;;;;;4982372;28;1336;-68
2022/03/22 12:19:59;;;;;;;;;;;;;;;;;;4982790;28;1248;-68
2022/03/22 12:22:25;;;;;;;;;;;;;;;;;;4982355;28;1360;-68
2022/03/22 12:24:50;;;;;;;;;;;;;;;;;;4981936;28;1894;-68
2022/03/22 12:27:16;;;;;;;;;;;;;;;;;;4981167;28;1863;-68
2022/03/22 12:29:43;;;;;;;;;;;;;;;;;;4982446;28;1244;-69
2022/03/22 12:32:16;;;;;;;;;;;;;;;;;;4981930;28;1252;-68
2022/03/22 12:34:43;;;;;;;;;;;;;;;;;;4980872;28;1461;-68
2022/03/22 12:37:08;;;;;;;;;;;;;;;;;;4980785;28;1438;-68
2022/03/22 12:39:37;;;;;;;;;;;;;;;;;;4982726;28;1046;-68
2022/03/22 12:42:03;;;;;;;;;;;;;;;;;;4980504;28;1507;-68
2022/03/22 12:44:28;;;;;;;;;;;;;;;;;;4980549;28;1367;-68
2022/03/22 12:46:53;;;;;;;;;;;;;;;;;;4982098;28;1894;-68
2022/03/22 12:49:20;;;;;;;;;;;;;;;;;;4982197;28;1251;-68
2022/03/22 12:51:47;;;;;;;;;;;;;;;;;;4980899;28;1406;-69
2022/03/22 12:54:16;;;;;;;;;;;;;;;;;;4981672;28;1280;-68
2022/03/22 12:56:43;;;;;;;;;;;;;;;;;;4979604;28;1450;-67
2022/03/22 12:59:16;;;;;;;;;;;;;;;;;;4983885;28;1249;-67
2022/03/22 13:01:42;;;;;;;;;;;;;;;;;;4981316;28;1138;-68
2022/03/22 13:04:07;;;;;;;;;;;;;;;;;;4981378;28;1229;-68
2022/03/22 13:06:32;;;;;;;;;;;;;;;;;;4981057;28;1898;-69
2022/03/22 13:11:41;;;;;;;;;;;;;;;;;;4981561;28;1246;-68
2022/03/22 13:16:55;;;;;;;;;;;;;;;;;;4980775;28;1401;-69
2022/03/22 13:19:20;;;;;;;;;;;;;;;;;;4980941;28;1367;-68
2022/03/22 13:21:45;;;;;;;;;;;;;;;;;;4979126;28;1525;-69
2022/03/22 13:24:12;;;;;;;;;;;;;;;;;;4980527;28;1508;-69
2022/03/22 13:26:50;;;;;;;;;;;;;;;;;;4980753;28;2033;-67
2022/03/22 13:29:16;;;;;;;;;;;;;;;;;;4981776;28;1363;-67
2022/03/22 13:31:55;;;;;;;;;;;;;;;;;;4981246;28;1335;-68
2022/03/22 13:34:24;;;;;;;;;;;;;;;;;;4980790;28;1281;-68
2022/03/22 13:36:50;;;;;;;;;;;;;;;;;;4979673;28;1398;-68
2022/03/22 13:39:22;;;;;;;;;;;;;;;;;;4980122;28;1413;-68
2022/03/22 13:41:47;;;;;;;;;;;;;;;;;;4982222;28;1441;-68
2022/03/22 13:44:12;;;;;;;;;;;;;;;;;;4981324;28;1268;-67
2022/03/22 13:46:37;;;;;;;;;;;;;;;;;;4980585;28;1894;-67
2022/03/22 13:49:05;;;;;;;;;;;;;;;;;;4981004;28;1193;-67
2022/03/22 13:51:31;;;;;;;;;;;;;;;;;;4978887;28;1450;-68
2022/03/22 13:53:57;;;;;;;;;;;;;;;;;;4980916;28;1685;-68
2022/03/22 13:56:24;;;;;;;;;;;;;;;;;;4983726;28;1402;-67
2022/03/22 13:58:49;;;;;;;;;;;;;;;;;;4984643;28;1166;-67
2022/03/22 14:01:15;;;;;;;;;;;;;;;;;;4982369;28;1450;-67
2022/03/22 14:03:40;;;;;;;;;;;;;;;;;;4984202;28;1320;-67
2022/03/22 14:06:06;;;;;;;;;;;;;;;;;;4983022;28;1906;-67
2022/03/22 14:08:31;;;;;;;;;;;;;;;;;;4983798;28;1559;-67
2022/03/22 14:10:58;;;;;;;;;;;;;;;;;;4984443;28;1471;-67
2022/03/22 14:13:25;;;;;;;;;;;;;;;;;;4984057;28;1414;-67
2022/03/22 14:15:50;;;;;;;;;;;;;;;;;;4983579;28;1418;-69
2022/03/22 14:18:15;;;;;;;;;;;;;;;;;;4983273;28;1395;-69
2022/03/22 14:20:40;;;;;;;;;;;;;;;;;;4982962;28;1537;-69
2022/03/22 14:23:06;;;;;;;;;;;;;;;;;;4983571;28;1399;-69
2022/03/22 14:25:32;;;;;;;;;;;;;;;;;;4983852;28;1902;-68
2022/03/22 14:27:57;;;;;;;;;;;;;;;;;;4982448;28;1518;-67
2022/03/22 14:30:24;;;;;;;;;;;;;;;;;;4984767;28;1349;-68
2022/03/22 14:32:52;;;;;;;;;;;;;;;;;;4983762;28;1288;-69
2022/03/22 14:38:02;;;;;;;;;;;;;;;;;;4983152;28;1402;-68
2022/03/22 14:40:28;;;;;;;;;;;;;;;;;;4984237;28;1253;-68
2022/03/22 14:42:56;;;;;;;;;;;;;;;;;;4985692;28;1308;-68
2022/03/22 14:45:23;;;;;;;;;;;;;;;;;;4983959;28;1914;-68
2022/03/22 14:47:49;;;;;;;;;;;;;;;;;;4983352;28;1354;-68
2022/03/22 14:50:14;;;;;;;;;;;;;;;;;;4983540;28;1418;-69
2022/03/22 14:55:31;;;;;;;;;;;;;;;;;;4990344;28;1323;-70
2022/03/22 15:00:40;;;;;;;;;;;;;;;;;;4983975;28;1065;-69
2022/03/22 15:03:06;;;;;;;;;;;;;;;;;;4983046;28;1495;-70
2022/03/22 15:05:33;;;;;;;;;;;;;;;;;;4982212;28;1961;-70
2022/03/22 15:08:01;;;;;;;;;;;;;;;;;;4984364;28;1224;-70
2022/03/22 15:10:26;;;;;;;;;;;;;;;;;;4983900;28;1118;-70
2022/03/22 15:12:51;;;;;;;;;;;;;;;;;;4982239;28;1257;-70
2022/03/22 15:15:17;;;;;;;;;;;;;;;;;;4983053;28;1354;-70
2022/03/22 15:17:43;;;;;;;;;;;;;;;;;;4982378;28;1354;-70
2022/03/22 15:20:09;;;;;;;;;;;;;;;;;;4981864;28;1360;-70
2022/03/22 15:22:35;;;;;;;;;;;;;;;;;;4983316;28;1398;-70
2022/03/22 15:25:00;;;;;;;;;;;;;;;;;;4982062;28;1902;-71
2022/03/22 15:27:28;;;;;;;;;;;;;;;;;;4982692;28;1268;-71
2022/03/22 15:29:53;;;;;;;;;;;;;;;;;;4985907;28;1256;-70
2022/03/22 15:32:19;;;;;;;;;;;;;;;;;;4983416;28;1201;-71
2022/03/22 15:34:44;;;;;;;;;;;;;;;;;;4981412;28;1395;-71
2022/03/22 15:37:09;;;;;;;;;;;;;;;;;;4982559;28;1233;-71
2022/03/22 15:39:34;;;;;;;;;;;;;;;;;;4982136;28;1509;-70
2022/03/22 15:42:00;;;;;;;;;;;;;;;;;;4980811;28;1366;-71
2022/03/22 15:44:25;;;;;;;;;;;;;;;;;;4982463;28;1526;-70
2022/03/22 15:46:50;;;;;;;;;;;;;;;;;;4983033;28;1902;-70
2022/03/22 15:49:15;;;;;;;;;;;;;;;;;;4982227;28;1458;-71
2022/03/22 15:51:41;;;;;;;;;;;;;;;;;;4982695;28;1517;-71
2022/03/22 15:54:06;;;;;;;;;;;;;;;;;;4982292;28;1418;-70
2022/03/22 15:56:31;;;;;;;;;;;;;;;;;;4982054;28;1328;-69
2022/03/22 15:58:56;;;;;;;;;;;;;;;;;;4982071;28;1387;-70
2022/03/22 16:01:22;;;;;;;;;;;;;;;;;;4981215;28;1395;-69
2022/03/22 16:03:47;;;;;;;;;;;;;;;;;;4982208;28;1443;-70
2022/03/22 16:06:12;;;;;;;;;;;;;;;;;;4981782;28;1894;-69
2022/03/22 16:08:38;;;;;;;;;;;;;;;;;;4982923;28;1307;-69
2022/03/22 16:11:03;;;;;;;;;;;;;;;;;;4983710;28;1265;-70
2022/03/22 16:13:29;;;;;;;;;;;;;;;;;;4983591;28;1430;-70
2022/03/22 16:15:55;;;;;;;;;;;;;;;;;;4982288;28;1405;-70
2022/03/22 16:18:20;;;;;;;;;;;;;;;;;;4980790;28;1281;-70
2022/03/22 16:20:47;;;;;;;;;;;;;;;;;;4982436;28;1229;-70
2022/03/22 16:23:15;;;;;;;;;;;;;;;;;;4981977;28;1354;-70
2022/03/22 16:25:40;;;;;;;;;;;;;;;;;;4982084;28;1898;-70
2022/03/22 16:28:05;;;;;;;;;;;;;;;;;;4981688;28;1186;-70
2022/03/22 16:30:30;;;;;;;;;;;;;;;;;;4983282;28;1527;-70
2022/03/22 16:38:24;;;;;;;;;;;;;;;;;;4981006;28;1466;-70
2022/03/22 16:40:49;;;;;;;;;;;;;;;;;;4981082;28;1446;-70
2022/03/22 16:43:18;;;;;;;;;;;;;;;;;;4980997;28;1450;-70
2022/03/22 16:45:43;;;;;;;;;;;;;;;;;;4980105;28;1898;-70
2022/03/22 16:48:15;;;;;;;;;;;;;;;;;;4982490;28;1307;-70
2022/03/22 16:50:43;;;;;;;;;;;;;;;;;;4981096;28;1158;-70
2022/03/22 16:53:08;;;;;;;;;;;;;;;;;;4982168;28;1320;-70
2022/03/22 16:55:37;;;;;;;;;;;;;;;;;;4984286;28;1292;-69
2022/03/22 16:58:04;;;;;;;;;;;;;;;;;;4982510;28;1257;-69
2022/03/22 17:00:29;;;;;;;;;;;;;;;;;;4983563;28;1241;-71
2022/03/22 17:02:54;;;;;;;;;;;;;;;;;;4972741;28;1375;-72
2022/03/22 17:05:21;;;;;;;;;;;;;;;;;;4980781;28;1953;-72
2022/03/22 17:07:47;;;;;;;;;;;;;;;;;;4982088;28;1194;-73
2022/03/22 17:10:12;;;;;;;;;;;;;;;;;;4982562;28;1444;-72
2022/03/22 17:12:37;;;;;;;;;;;;;;;;;;4982057;28;1558;-72
2022/03/22 17:15:03;;;;;;;;;;;;;;;;;;4983232;28;1522;-72
2022/03/22 17:17:28;;;;;;;;;;;;;;;;;;4981438;28;1319;-72
2022/03/22 17:19:54;;;;;;;;;;;;;;;;;;4981172;28;1323;-72
2022/03/22 17:22:19;;;;;;;;;;;;;;;;;;4982318;28;1288;-73
2022/03/22 17:24:44;;;;;;;;;;;;;;;;;;4982272;28;1213;-73
2022/03/22 17:27:09;;;;;;;;;;;;;;;;;;4982037;28;1894;-72
2022/03/22 17:29:39;;;;;;;;;;;;;;;;;;4981625;28;1356;-72
2022/03/22 17:32:04;;;;;;;;;;;;;;;;;;4982172;28;1268;-72
2022/03/22 17:34:29;;;;;;;;;;;;;;;;;;4964644;28;1272;-72
2022/03/22 17:36:55;;;;;;;;;;;;;;;;;;4981354;28;1394;-73
2022/03/22 17:39:20;;;;;;;;;;;;;;;;;;4981998;28;1424;-73
2022/03/22 17:41:45;;;;;;;;;;;;;;;;;;4980614;28;1394;-72
2022/03/22 17:44:10;;;;;;;;;;;;;;;;;;4982034;28;1249;-73
2022/03/22 17:46:35;;;;;;;;;;;;;;;;;;4981266;28;1961;-70